Terminal Aerodrome Forecast
Issued by NWS Charleston, WV

Home | Current Version | Previous Version | Text Only | Print | Product List | Glossary On
Versions: 1 2 3 4 5 6 7 8 9 10 11 12 13 14 15 16 17 18 19 20 21 22 23 24 25
000
FTUS41 KRLX 291720
TAFCRW
TAF
KCRW 291720Z 2918/3018 03005KT P6SM SCT045
     FM292300 03004KT P6SM SCT250
     FM300400 00000KT P6SM FEW250
     FM300900 00000KT 1SM BR SCT001
     FM301100 00000KT 1/4SM FG BKN001
     FM301300 VRB04KT P6SM FEW250=

USA.gov is the U.S. government's official web portal to all federal, state and local government web resources and services.